Time;durP1;ratioP1;P1;durP2;ratioP2;P2;SDS_P1;SDS_P2;PMS_P1;PMS_P2;Temp;Humidity;BMP_temperature;BMP_pressure;BME280_temperature;BME280_humidity;BME280_pressure;Samples;Min_cycle;Max_cycle;Signal;HPM_P1;HPM_P2
2022/05/17 00:01:36;;;;;;;;;;;;;;;-140.72;100.00;52358.41;5033949;28;19925;-67
2022/05/17 00:04:01;;;;;;;;;;;;;;;-140.72;100.00;52392.88;5016187;28;19917;-67
2022/05/17 00:06:26;;;;;;;;;;;;;;;-140.72;100.00;52384.78;5033914;28;19956;-67
2022/05/17 00:08:52;;;;;;;;;;;;;;;-140.72;100.00;52372.59;5016346;28;20322;-67
2022/05/17 00:11:17;;;;;;;;;;;;;;;-140.72;100.00;52342.16;5033659;28;20020;-67
2022/05/17 00:13:43;;;;;;;;;;;;;;;-140.72;100.00;52382.75;5033397;28;20352;-66
2022/05/17 00:16:09;;;;;;;;;;;;;;;-140.72;100.00;52407.09;5033792;28;19917;-67
2022/05/17 00:18:35;;;;;;;;;;;;;;;-140.72;100.00;52362.44;5032829;28;20003;-67
2022/05/17 00:21:00;;;;;;;;;;;;;;;-140.72;100.00;52344.19;5029669;28;19921;-68
2022/05/17 00:23:26;;;;;;;;;;;;;;;-140.72;100.00;52394.91;5012482;28;19917;-66
2022/05/17 00:25:51;;;;;;;;;;;;;;;-140.72;100.00;52394.91;5015637;28;19925;-66
2022/05/17 00:28:19;;;;;;;;;;;;;;;-140.72;100.00;52413.19;5033649;28;19919;-67
2022/05/17 00:30:44;;;;;;;;;;;;;;;-140.72;100.00;52409.13;5033796;28;20502;-67
2022/05/17 00:33:10;;;;;;;;;;;;;;;-140.72;100.00;52382.75;5033243;28;19921;-67
2022/05/17 00:35:35;;;;;;;;;;;;;;;-140.72;100.00;52388.84;5033052;28;20055;-66
2022/05/17 00:38:01;;;;;;;;;;;;;;;-140.72;100.00;52415.22;5015207;28;19936;-67
2022/05/17 00:40:26;;;;;;;;;;;;;;;-140.72;100.00;52423.31;5015603;28;19917;-67
2022/05/17 00:42:51;;;;;;;;;;;;;;;-140.72;100.00;52394.91;5032638;28;20295;-67
2022/05/17 00:45:17;;;;;;;;;;;;;;;-140.72;100.00;52398.97;5033253;28;19917;-67
2022/05/17 00:47:56;;;;;;;;;;;;;;;-140.72;100.00;52407.09;5033209;28;19921;-67
2022/05/17 00:50:27;;;;;;;;;;;;;;;-140.72;100.00;52354.34;5033238;28;19947;-66
2022/05/17 00:53:01;;;;;;;;;;;;;;;-140.72;100.00;52411.16;5015196;28;19921;-67
2022/05/17 00:55:42;;;;;;;;;;;;;;;-140.72;100.00;52380.72;5013468;28;19932;-67
2022/05/17 00:58:09;;;;;;;;;;;;;;;-140.72;100.00;52425.34;5008215;28;19921;-67
2022/05/17 01:00:37;;;;;;;;;;;;;;;-140.72;100.00;52403.03;5014250;28;19936;-67
2022/05/17 01:03:06;;;;;;;;;;;;;;;-140.72;100.00;52394.91;5030784;28;19992;-67
2022/05/17 01:05:34;;;;;;;;;;;;;;;-140.72;100.00;52378.69;5030540;28;19924;-67
2022/05/17 01:08:01;;;;;;;;;;;;;;;-140.72;100.00;52388.84;5032582;28;19920;-66
2022/05/17 01:10:27;;;;;;;;;;;;;;;-140.72;100.00;52415.22;5031994;28;20339;-66
2022/05/17 01:15:37;;;;;;;;;;;;;;;-140.72;100.00;52411.16;5033609;28;19979;-66
2022/05/17 01:18:04;;;;;;;;;;;;;;;-140.72;100.00;52409.13;5015294;28;20340;-66
2022/05/17 01:20:29;;;;;;;;;;;;;;;-140.72;100.00;52437.53;5032530;28;19925;-67
2022/05/17 01:22:54;;;;;;;;;;;;;;;-140.72;100.00;52407.09;5032570;28;19932;-67
2022/05/17 01:25:20;;;;;;;;;;;;;;;-140.72;100.00;52398.97;5032939;28;20012;-67
2022/05/17 01:27:51;;;;;;;;;;;;;;;-140.72;100.00;52409.13;5032832;28;19924;-67
2022/05/17 01:30:21;;;;;;;;;;;;;;;-140.72;100.00;52427.38;5032114;28;20004;-67
2022/05/17 01:32:47;;;;;;;;;;;;;;;-140.72;100.00;52409.13;5032193;28;19943;-67
2022/05/17 01:35:13;;;;;;;;;;;;;;;-140.72;100.00;52421.28;5031045;28;19925;-67
2022/05/17 01:37:38;;;;;;;;;;;;;;;-140.72;100.00;52407.09;5013610;28;19928;-67
2022/05/17 01:40:04;;;;;;;;;;;;;;;-140.72;100.00;52419.28;5012820;28;19925;-67
2022/05/17 01:42:29;;;;;;;;;;;;;;;-140.72;100.00;52409.13;5030736;28;19944;-66
2022/05/17 01:44:54;;;;;;;;;;;;;;;-140.72;100.00;52429.41;5031495;28;19924;-67
2022/05/17 01:47:19;;;;;;;;;;;;;;;-140.72;100.00;52419.28;5013854;28;20336;-66
2022/05/17 01:49:44;;;;;;;;;;;;;;;-140.72;100.00;52447.69;5031665;28;19928;-67
2022/05/17 01:52:10;;;;;;;;;;;;;;;-140.72;100.00;52435.50;5030922;28;19973;-67
2022/05/17 01:54:35;;;;;;;;;;;;;;;-140.72;100.00;52411.16;5014240;28;19921;-66
2022/05/17 01:57:01;;;;;;;;;;;;;;;-140.72;100.00;52423.31;5017191;28;20024;-68
2022/05/17 01:59:27;;;;;;;;;;;;;;;-140.72;100.00;52427.38;5017489;28;19921;-66
2022/05/17 02:01:52;;;;;;;;;;;;;;;-140.72;100.00;52419.28;5035005;28;19928;-65
2022/05/17 02:04:17;;;;;;;;;;;;;;;-140.72;100.00;52423.31;5035618;28;20029;-66
2022/05/17 02:06:42;;;;;;;;;;;;;;;-140.72;100.00;52443.63;5016940;28;19963;-65
2022/05/17 02:09:08;;;;;;;;;;;;;;;-140.72;100.00;52407.09;5036195;28;19917;-65
2022/05/17 02:11:33;;;;;;;;;;;;;;;-140.72;100.00;52472.03;5031944;28;19921;-68
2022/05/17 02:13:58;;;;;;;;;;;;;;;-140.72;100.00;52394.91;4998636;28;19994;-66
2022/05/17 02:16:23;;;;;;;;;;;;;;;-140.72;100.00;52439.56;5016390;28;20325;-66
2022/05/17 02:18:50;;;;;;;;;;;;;;;-140.72;100.00;52439.56;4998973;28;19928;-65
2022/05/17 02:21:15;;;;;;;;;;;;;;;-140.72;100.00;52484.19;4998963;28;20390;-68
2022/05/17 02:23:41;;;;;;;;;;;;;;;-140.72;100.00;52421.28;5018375;28;19983;-68
2022/05/17 02:26:07;;;;;;;;;;;;;;;-140.72;100.00;52435.50;5035867;28;20372;-68
2022/05/17 02:28:32;;;;;;;;;;;;;;;-140.72;100.00;52435.50;5017527;28;20068;-68
2022/05/17 02:30:57;;;;;;;;;;;;;;;-140.72;100.00;52455.78;5035263;28;20391;-66
2022/05/17 02:36:08;;;;;;;;;;;;;;;-140.72;100.00;52425.34;4945936;29;19930;-67
2022/05/17 02:38:33;;;;;;;;;;;;;;;-140.72;100.00;52423.31;4939979;29;19923;-68
2022/05/17 02:40:58;;;;;;;;;;;;;;;-140.72;100.00;52472.03;4957561;29;20309;-67
2022/05/17 02:43:23;;;;;;;;;;;;;;;-140.72;100.00;52463.91;4940600;29;20216;-67
2022/05/17 02:45:49;;;;;;;;;;;;;;;-140.72;100.00;52419.28;4957728;29;19958;-68
2022/05/17 02:48:14;;;;;;;;;;;;;;;-140.72;100.00;52423.31;4939695;29;19981;-67
2022/05/17 02:50:39;;;;;;;;;;;;;;;-140.72;100.00;52411.16;4958202;29;19918;-68
2022/05/17 02:53:05;;;;;;;;;;;;;;;-140.72;100.00;52427.38;4957241;29;19918;-68
2022/05/17 02:55:31;;;;;;;;;;;;;;;-140.72;100.00;52427.38;4956770;29;19973;-68
2022/05/17 02:57:57;;;;;;;;;;;;;;;-140.72;100.00;52405.06;4940180;29;20067;-67
2022/05/17 03:00:23;;;;;;;;;;;;;;;-140.72;100.00;52419.28;4957376;29;20011;-68
2022/05/17 03:02:48;;;;;;;;;;;;;;;-140.72;100.00;52431.44;4946753;29;19922;-68
2022/05/17 03:05:14;;;;;;;;;;;;;;;-140.72;100.00;52415.22;4930572;29;20298;-67
2022/05/17 03:07:39;;;;;;;;;;;;;;;-140.72;100.00;52439.56;4919020;29;20510;-68
2022/05/17 03:10:04;;;;;;;;;;;;;;;-140.72;100.00;52455.78;4937303;29;20266;-68
2022/05/17 03:12:30;;;;;;;;;;;;;;;-140.72;100.00;52429.41;4920619;29;20026;-67
2022/05/17 03:14:55;;;;;;;;;;;;;;;-140.72;100.00;52417.25;4920130;29;19923;-67
2022/05/17 03:17:21;;;;;;;;;;;;;;;-140.72;100.00;52427.38;4941823;29;19969;-67
2022/05/17 03:19:46;;;;;;;;;;;;;;;-140.72;100.00;52431.44;4956366;29;20005;-67
2022/05/17 03:22:12;;;;;;;;;;;;;;;-140.72;100.00;52431.44;4956040;29;20346;-67
2022/05/17 03:24:37;;;;;;;;;;;;;;;-140.72;100.00;52445.66;4956977;29;19918;-67
2022/05/17 03:27:03;;;;;;;;;;;;;;;-140.72;100.00;52443.63;4957372;29;20384;-67
2022/05/17 03:29:28;;;;;;;;;;;;;;;-140.72;100.00;52459.84;4957724;29;20040;-68
2022/05/17 03:31:53;;;;;;;;;;;;;;;-140.72;100.00;52415.22;4957485;29;20342;-68
2022/05/17 03:34:19;;;;;;;;;;;;;;;-140.72;100.00;52419.28;4956752;28;19922;-67
2022/05/17 03:36:44;;;;;;;;;;;;;;;-140.72;100.00;52437.53;4957196;29;20341;-67
2022/05/17 03:39:09;;;;;;;;;;;;;;;-140.72;100.00;52447.69;4956439;28;19922;-67
2022/05/17 03:41:35;;;;;;;;;;;;;;;-140.72;100.00;52437.53;4957380;29;19919;-67
2022/05/17 03:44:00;;;;;;;;;;;;;;;-140.72;100.00;52453.75;4957204;29;20017;-67
2022/05/17 03:46:25;;;;;;;;;;;;;;;-140.72;100.00;52455.78;4940047;29;19957;-67
2022/05/17 03:48:51;;;;;;;;;;;;;;;-140.72;100.00;52429.41;4956996;29;19923;-67
2022/05/17 03:51:18;;;;;;;;;;;;;;;-140.72;100.00;52449.72;4957155;29;19918;-68
2022/05/17 03:53:44;;;;;;;;;;;;;;;-140.72;100.00;52394.91;4957048;29;20081;-68
2022/05/17 03:56:09;;;;;;;;;;;;;;;-140.72;100.00;52419.28;4957280;29;19956;-68
2022/05/17 03:58:34;;;;;;;;;;;;;;;-140.72;100.00;52447.69;4956545;29;19973;-67
2022/05/17 04:01:00;;;;;;;;;;;;;;;-140.72;100.00;52423.31;4939612;29;19945;-67
2022/05/17 04:03:25;;;;;;;;;;;;;;;-140.72;100.00;52467.97;4956683;28;20375;-67
2022/05/17 04:05:51;;;;;;;;;;;;;;;-140.72;100.00;52390.84;4938971;29;19957;-67
2022/05/17 04:08:16;;;;;;;;;;;;;;;-140.72;100.00;52431.44;4956504;29;19925;-66
2022/05/17 04:10:42;;;;;;;;;;;;;;;-140.72;100.00;52411.16;4952003;29;19946;-67
2022/05/17 04:13:07;;;;;;;;;;;;;;;-140.72;100.00;52461.88;4948312;28;19918;-67
2022/05/17 04:15:32;;;;;;;;;;;;;;;-140.72;100.00;52417.25;4921059;29;19962;-69
2022/05/17 04:17:57;;;;;;;;;;;;;;;-140.72;100.00;52429.41;4926926;29;19918;-69
2022/05/17 04:20:23;;;;;;;;;;;;;;;-140.72;100.00;52453.75;4925654;29;19942;-78
2022/05/17 04:22:50;;;;;;;;;;;;;;;-140.72;100.00;52439.56;4920511;29;19923;-77
2022/05/17 04:25:16;;;;;;;;;;;;;;;-140.72;100.00;52427.38;4944453;29;19985;-77
2022/05/17 04:27:43;;;;;;;;;;;;;;;-140.72;100.00;52451.72;4924033;29;19929;-78
2022/05/17 04:30:08;;;;;;;;;;;;;;;-140.72;100.00;52417.25;4947687;29;19919;-78
2022/05/17 04:32:33;;;;;;;;;;;;;;;-140.72;100.00;52421.28;4936754;29;19930;-76
2022/05/17 04:35:00;;;;;;;;;;;;;;;-140.72;100.00;52407.09;4942902;29;19922;-71
2022/05/17 04:37:26;;;;;;;;;;;;;;;-140.72;100.00;52394.91;4941809;29;20383;-71
2022/05/17 04:39:51;;;;;;;;;;;;;;;-140.72;100.00;52429.41;4929184;29;19939;-73
2022/05/17 04:42:16;;;;;;;;;;;;;;;-140.72;100.00;52415.22;4944466;29;19978;-72
2022/05/17 04:44:41;;;;;;;;;;;;;;;-140.72;100.00;52396.94;4944260;29;19977;-72
2022/05/17 04:47:07;;;;;;;;;;;;;;;-140.72;100.00;52411.16;4929396;29;19981;-71
2022/05/17 04:49:32;;;;;;;;;;;;;;;-140.72;100.00;52401.00;4940203;29;20309;-70
2022/05/17 04:51:57;;;;;;;;;;;;;;;-140.72;100.00;52407.09;4919872;29;19938;-71
2022/05/17 04:54:23;;;;;;;;;;;;;;;-140.72;100.00;52390.84;4923478;29;19950;-71
2022/05/17 04:56:48;;;;;;;;;;;;;;;-140.72;100.00;52374.63;4944058;29;19950;-72
2022/05/17 04:59:13;;;;;;;;;;;;;;;-140.72;100.00;52390.84;4933879;29;20400;-70
2022/05/17 05:01:38;;;;;;;;;;;;;;;-140.72;100.00;52372.59;4946996;29;19978;-70
2022/05/17 05:04:04;;;;;;;;;;;;;;;-140.72;100.00;52338.09;4949733;29;19923;-70
2022/05/17 05:06:29;;;;;;;;;;;;;;;-140.72;100.00;52358.41;4921164;29;19984;-69
2022/05/17 05:08:54;;;;;;;;;;;;;;;-140.72;100.00;52386.81;4944867;29;20312;-68
2022/05/17 05:11:20;;;;;;;;;;;;;;;-140.72;100.00;52374.63;4954069;29;19922;-68
2022/05/17 05:13:45;;;;;;;;;;;;;;;-140.72;100.00;52390.84;4949878;29;19923;-68
2022/05/17 05:16:11;;;;;;;;;;;;;;;-140.72;100.00;52398.97;4935347;29;20366;-68
2022/05/17 05:18:37;;;;;;;;;;;;;;;-140.72;100.00;52415.22;4951905;28;19938;-68
2022/05/17 05:21:03;;;;;;;;;;;;;;;-140.72;100.00;52380.72;4942780;28;19919;-75
2022/05/17 05:23:29;;;;;;;;;;;;;;;-140.72;100.00;52338.09;4947789;28;19991;-73
2022/05/17 05:25:58;;;;;;;;;;;;;;;-140.72;100.00;52368.53;4930392;28;20460;-69
2022/05/17 05:28:23;;;;;;;;;;;;;;;-140.72;100.00;52362.44;4931579;29;19934;-71
2022/05/17 05:30:48;;;;;;;;;;;;;;;-140.72;100.00;52352.31;4945557;28;19931;-73
2022/05/17 05:33:13;;;;;;;;;;;;;;;-140.72;100.00;52407.09;4933240;29;20357;-69
2022/05/17 05:35:39;;;;;;;;;;;;;;;-140.72;100.00;52386.81;4956903;28;20137;-69
2022/05/17 05:38:04;;;;;;;;;;;;;;;-140.72;100.00;52378.69;4954656;28;19922;-69
2022/05/17 05:40:29;;;;;;;;;;;;;;;-140.72;100.00;52380.72;4931619;29;19933;-70
2022/05/17 05:42:56;;;;;;;;;;;;;;;-140.72;100.00;52372.59;4953550;29;19946;-70
2022/05/17 05:45:21;;;;;;;;;;;;;;;-140.72;100.00;52390.84;4954441;29;19937;-69
2022/05/17 05:47:46;;;;;;;;;;;;;;;-140.72;100.00;52386.81;4953444;28;19924;-70
2022/05/17 05:50:11;;;;;;;;;;;;;;;-140.72;100.00;52396.94;4954797;28;20383;-68
2022/05/17 05:52:37;;;;;;;;;;;;;;;-140.72;100.00;52398.97;4945926;29;20410;-67
2022/05/17 05:55:03;;;;;;;;;;;;;;;-140.72;100.00;52366.50;4953851;28;19994;-68
2022/05/17 05:57:28;;;;;;;;;;;;;;;-140.72;100.00;52394.91;4917094;28;19934;-69
2022/05/17 05:59:53;;;;;;;;;;;;;;;-140.72;100.00;52376.66;4949513;28;20414;-68
2022/05/17 06:02:19;;;;;;;;;;;;;;;-140.72;100.00;52374.63;4947978;29;19946;-68
2022/05/17 06:04:44;;;;;;;;;;;;;;;-140.72;100.00;52394.91;4953328;29;19918;-69
2022/05/17 06:07:09;;;;;;;;;;;;;;;-140.72;100.00;52409.13;4937528;29;19930;-68
2022/05/17 06:09:34;;;;;;;;;;;;;;;-140.72;100.00;52409.13;4951548;29;19981;-68
2022/05/17 06:12:00;;;;;;;;;;;;;;;-140.72;100.00;52390.84;4932869;29;19938;-69
2022/05/17 06:14:25;;;;;;;;;;;;;;;-140.72;100.00;52392.88;4935626;29;19922;-70
2022/05/17 06:16:51;;;;;;;;;;;;;;;-140.72;100.00;52417.25;4950201;29;20309;-72
2022/05/17 06:19:16;;;;;;;;;;;;;;;-140.72;100.00;52376.66;4936220;29;19919;-70
2022/05/17 06:21:42;;;;;;;;;;;;;;;-140.72;100.00;52419.28;4931366;29;19961;-74
2022/05/17 06:24:07;;;;;;;;;;;;;;;-140.72;100.00;52409.13;4937977;29;19925;-67
2022/05/17 06:26:32;;;;;;;;;;;;;;;-140.72;100.00;52384.78;4942100;29;20294;-69
2022/05/17 06:28:57;;;;;;;;;;;;;;;-140.72;100.00;52386.81;4949870;29;19919;-70
2022/05/17 06:31:23;;;;;;;;;;;;;;;-140.72;100.00;52388.84;4957532;29;19927;-69
2022/05/17 06:33:48;;;;;;;;;;;;;;;-140.72;100.00;52386.81;4957838;28;20426;-69
2022/05/17 06:36:13;;;;;;;;;;;;;;;-140.72;100.00;52362.44;4940790;29;19977;-76
2022/05/17 06:38:38;;;;;;;;;;;;;;;-140.72;100.00;52407.09;4940088;29;19926;-67
2022/05/17 06:41:04;;;;;;;;;;;;;;;-140.72;100.00;52374.63;4956890;29;20386;-67
2022/05/17 06:43:29;;;;;;;;;;;;;;;-140.72;100.00;52386.81;4956732;28;19918;-67
2022/05/17 06:45:55;;;;;;;;;;;;;;;-140.72;100.00;52382.75;4957011;29;19922;-67
2022/05/17 06:48:20;;;;;;;;;;;;;;;-140.72;100.00;52411.16;4956872;29;19929;-68
2022/05/17 06:50:45;;;;;;;;;;;;;;;-140.72;100.00;52370.56;4956806;29;19925;-67
2022/05/17 06:53:11;;;;;;;;;;;;;;;-140.72;100.00;52384.78;4956868;29;19985;-67
2022/05/17 06:55:37;;;;;;;;;;;;;;;-140.72;100.00;52364.47;4957146;29;20441;-67
2022/05/17 06:58:03;;;;;;;;;;;;;;;-140.72;100.00;52388.84;4939718;29;19923;-67
2022/05/17 07:00:28;;;;;;;;;;;;;;;-140.72;100.00;52334.03;4956968;29;20021;-67
2022/05/17 07:02:53;;;;;;;;;;;;;;;-140.72;100.00;52370.56;4939524;29;20270;-67
2022/05/17 07:05:19;;;;;;;;;;;;;;;-140.72;100.00;52370.56;4955430;29;19919;-66
2022/05/17 07:07:44;;;;;;;;;;;;;;;-140.72;100.00;52338.09;4956447;29;19918;-67
2022/05/17 07:13:09;;;;;;;;;;;;;;;-140.72;100.00;52352.31;4956170;29;20115;-68
2022/05/17 07:15:37;;;;;;;;;;;;;;;-140.72;100.00;52362.44;4955769;29;20404;-67
2022/05/17 07:18:03;;;;;;;;;;;;;;;-140.72;100.00;52342.16;4955618;29;19918;-67
2022/05/17 07:20:29;;;;;;;;;;;;;;;-140.72;100.00;52313.75;4955457;29;19918;-67
2022/05/17 07:22:54;;;;;;;;;;;;;;;-140.72;100.00;52336.06;4955405;29;19923;-67
2022/05/17 07:25:19;;;;;;;;;;;;;;;-140.72;100.00;52307.66;4955420;29;19950;-67
2022/05/17 07:27:45;;;;;;;;;;;;;;;-140.72;100.00;52346.22;4955462;29;19930;-67
2022/05/17 07:30:10;;;;;;;;;;;;;;;-140.72;100.00;52293.47;4956323;29;20362;-67
2022/05/17 07:32:36;;;;;;;;;;;;;;;-140.72;100.00;52313.75;4939869;28;19926;-74
2022/05/17 07:35:01;;;;;;;;;;;;;;;-140.72;100.00;52303.59;4955964;28;20247;-68
2022/05/17 07:37:26;;;;;;;;;;;;;;;-140.72;100.00;52301.59;4949311;28;19945;-69
2022/05/17 07:39:52;;;;;;;;;;;;;;;-140.72;100.00;52297.53;4945639;28;19934;-67
2022/05/17 07:42:17;;;;;;;;;;;;;;;-140.72;100.00;52301.59;4948622;28;19929;-68
2022/05/17 07:44:42;;;;;;;;;;;;;;;-140.72;100.00;52315.78;4931581;29;19929;-69
2022/05/17 07:47:07;;;;;;;;;;;;;;;-140.72;100.00;52313.75;4946117;29;20391;-68
2022/05/17 07:49:34;;;;;;;;;;;;;;;-140.72;100.00;52342.16;4940861;29;20291;-69
2022/05/17 07:52:00;;;;;;;;;;;;;;;-140.72;100.00;52309.69;4943308;29;19930;-69
2022/05/17 07:54:25;;;;;;;;;;;;;;;-140.72;100.00;52287.38;4942338;29;19919;-69
2022/05/17 07:56:50;;;;;;;;;;;;;;;-140.72;100.00;52303.59;4945108;29;20322;-68
2022/05/17 07:59:15;;;;;;;;;;;;;;;-140.72;100.00;52293.47;4946311;29;19950;-68
2022/05/17 08:01:40;;;;;;;;;;;;;;;-140.72;100.00;52309.69;4941941;29;19970;-68
2022/05/17 08:04:06;;;;;;;;;;;;;;;-140.72;100.00;52307.66;4943397;29;19965;-68
2022/05/17 08:06:31;;;;;;;;;;;;;;;-140.72;100.00;52220.41;4937351;29;19978;-70
2022/05/17 08:08:56;;;;;;;;;;;;;;;-140.72;100.00;52228.53;4951938;29;19925;-68
2022/05/17 08:11:24;;;;;;;;;;;;;;;-140.72;100.00;52240.72;4930517;29;19965;-69
2022/05/17 08:13:49;;;;;;;;;;;;;;;-140.72;100.00;52189.97;4921929;29;19918;-71
2022/05/17 08:16:15;;;;;;;;;;;;;;;-140.72;100.00;52252.88;4936325;29;19923;-70
2022/05/17 08:18:40;;;;;;;;;;;;;;;-140.72;100.00;52240.72;4946174;29;19926;-69
2022/05/17 08:21:07;;;;;;;;;;;;;;;-140.72;100.00;52222.44;4934079;29;19926;-68
2022/05/17 08:23:32;;;;;;;;;;;;;;;-140.72;100.00;52208.25;4936044;29;19990;-68
2022/05/17 08:28:41;;;;;;;;;;;;;;;-140.72;100.00;52194.03;4936604;29;20038;-68
2022/05/17 08:31:06;;;;;;;;;;;;;;;-140.72;100.00;52220.41;4948567;29;19965;-67
2022/05/17 08:33:33;;;;;;;;;;;;;;;-140.72;100.00;52187.97;4955533;28;19919;-66
2022/05/17 08:36:04;;;;;;;;;;;;;;;-140.72;100.00;52159.56;4937332;29;19958;-67
2022/05/17 08:38:32;;;;;;;;;;;;;;;-140.72;100.00;52165.63;4955073;29;19954;-67
2022/05/17 08:41:09;;;;;;;;;;;;;;;-140.72;100.00;52196.06;4937021;29;20438;-67
2022/05/17 08:43:53;;;;;;;;;;;;;;;-140.72;100.00;52183.91;4953980;29;20025;-67
2022/05/17 08:46:36;;;;;;;;;;;;;;;-140.72;100.00;52177.81;4953951;29;19926;-68
2022/05/17 08:49:15;;;;;;;;;;;;;;;-140.72;100.00;52171.72;4953925;29;19965;-68
2022/05/17 08:51:40;;;;;;;;;;;;;;;-140.72;100.00;52143.31;4953746;29;19919;-67
2022/05/17 08:54:07;;;;;;;;;;;;;;;-140.72;100.00;52167.66;4953086;29;19945;-67
2022/05/17 08:56:36;;;;;;;;;;;;;;;-140.72;100.00;52165.63;4954932;29;20368;-68
2022/05/17 08:59:04;;;;;;;;;;;;;;;-140.72;100.00;52135.19;4954628;29;19929;-68
2022/05/17 09:01:36;;;;;;;;;;;;;;;-140.72;100.00;52131.16;4954719;29;19965;-67
2022/05/17 09:04:04;;;;;;;;;;;;;;;-140.72;100.00;52112.88;4936046;29;20020;-68
2022/05/17 09:06:36;;;;;;;;;;;;;;;-140.72;100.00;52137.22;4953431;28;19926;-68
2022/05/17 09:09:13;;;;;;;;;;;;;;;-140.72;100.00;52139.25;4935975;29;20369;-68
2022/05/17 09:11:44;;;;;;;;;;;;;;;-140.72;100.00;52155.50;4953601;29;20341;-68
2022/05/17 09:14:17;;;;;;;;;;;;;;;-140.72;100.00;52137.22;4953604;29;20285;-68
2022/05/17 09:16:47;;;;;;;;;;;;;;;-140.72;100.00;52127.09;4953316;29;19994;-68
2022/05/17 09:19:13;;;;;;;;;;;;;;;-140.72;100.00;52159.56;4953389;29;19919;-69
2022/05/17 09:21:39;;;;;;;;;;;;;;;-140.72;100.00;52137.22;4951681;29;19930;-68
2022/05/17 09:24:06;;;;;;;;;;;;;;;-140.72;100.00;52110.84;4925563;29;19929;-67
2022/05/17 09:26:32;;;;;;;;;;;;;;;-140.72;100.00;52049.97;4946348;29;19922;-69
2022/05/17 09:29:24;;;;;;;;;;;;;;;-140.72;100.00;52106.78;4946148;29;19957;-68
2022/05/17 09:31:54;;;;;;;;;;;;;;;-140.72;100.00;52025.63;4910332;29;19927;-68
2022/05/17 09:34:36;;;;;;;;;;;;;;;-140.72;100.00;52066.22;4943712;28;19936;-69
2022/05/17 09:37:08;;;;;;;;;;;;;;;-140.72;100.00;52064.19;4945636;29;20331;-68
2022/05/17 09:39:33;;;;;;;;;;;;;;;-140.72;100.00;52009.41;4951230;28;20405;-68
2022/05/17 09:42:01;;;;;;;;;;;;;;;-140.72;100.00;52078.38;4936710;29;19965;-67
2022/05/17 09:44:28;;;;;;;;;;;;;;;-140.72;100.00;52007.38;4935418;29;19922;-68
2022/05/17 09:46:58;;;;;;;;;;;;;;;-140.72;100.00;51966.81;4952710;29;19918;-69
2022/05/17 09:55:23;;;;;;;;;;;;;;;-140.72;100.00;51869.41;4945136;29;20287;-67
2022/05/17 09:58:04;;;;;;;;;;;;;;;-140.72;100.00;51857.25;4933594;29;20028;-70
2022/05/17 10:00:34;;;;;;;;;;;;;;;-140.72;100.00;51851.16;4953045;29;20286;-67
2022/05/17 10:03:25;;;;;;;;;;;;;;;-140.72;100.00;51804.50;4952904;29;19922;-67
2022/05/17 10:05:55;;;;;;;;;;;;;;;-140.72;100.00;51790.28;4935820;29;19962;-69
2022/05/17 10:08:20;;;;;;;;;;;;;;;-140.72;100.00;51780.16;4953425;29;19922;-69
2022/05/17 10:11:06;;;;;;;;;;;;;;;-140.72;100.00;51836.94;4953052;29;19965;-68
2022/05/17 10:13:38;;;;;;;;;;;;;;;-140.72;100.00;51755.81;4950355;29;20754;-67
2022/05/17 10:16:11;;;;;;;;;;;;;;;-140.72;100.00;51782.16;4952296;29;19970;-68
2022/05/17 10:18:45;;;;;;;;;;;;;;;-140.72;100.00;51705.06;4938458;29;20017;-67
2022/05/17 10:21:21;;;;;;;;;;;;;;;-140.72;100.00;51770.00;4938757;28;20350;-67
2022/05/17 10:24:02;;;;;;;;;;;;;;;-140.72;100.00;51703.06;4956549;29;20074;-67
2022/05/17 10:26:31;;;;;;;;;;;;;;;-140.72;100.00;51729.44;4968268;28;19922;-67
2022/05/17 10:29:06;;;;;;;;;;;;;;;-140.72;100.00;51772.03;4939149;29;20357;-67
2022/05/17 10:31:35;;;;;;;;;;;;;;;-140.72;100.00;51765.94;4949878;28;20000;-67
2022/05/17 10:34:10;;;;;;;;;;;;;;;-140.72;100.00;51792.31;4975537;28;19918;-68
2022/05/17 10:36:44;;;;;;;;;;;;;;;-140.72;100.00;51812.59;4974396;28;19973;-67
2022/05/17 10:39:09;;;;;;;;;;;;;;;-140.72;100.00;51875.50;4950073;29;20088;-67
2022/05/17 10:41:34;;;;;;;;;;;;;;;-140.72;100.00;51774.06;4941349;29;20088;-67
2022/05/17 10:44:00;;;;;;;;;;;;;;;-140.72;100.00;51725.38;4956279;29;19918;-67
2022/05/17 10:46:36;;;;;;;;;;;;;;;-140.72;100.00;51699.00;4956392;29;19918;-67
2022/05/17 10:49:20;;;;;;;;;;;;;;;-140.72;100.00;51690.88;4939173;29;19930;-67
2022/05/17 10:52:08;;;;;;;;;;;;;;;-140.72;100.00;51717.25;4938977;29;19919;-68
2022/05/17 10:54:37;;;;;;;;;;;;;;;-140.72;100.00;51638.13;4938761;29;20321;-70
2022/05/17 10:57:20;;;;;;;;;;;;;;;-140.72;100.00;51660.44;4955883;29;19923;-67
2022/05/17 10:59:52;;;;;;;;;;;;;;;-140.72;100.00;51676.69;4938260;29;19925;-67
2022/05/17 11:02:17;;;;;;;;;;;;;;;-140.72;100.00;51615.81;4955640;29;20369;-68
2022/05/17 11:05:02;;;;;;;;;;;;;;;-140.72;100.00;51640.16;4938431;29;19925;-67
2022/05/17 11:07:44;;;;;;;;;;;;;;;-140.72;100.00;51638.13;4956166;29;19974;-67
2022/05/17 11:10:16;;;;;;;;;;;;;;;-140.72;100.00;51658.41;4955511;29;19974;-69
2022/05/17 11:12:46;;;;;;;;;;;;;;;-140.72;100.00;51705.06;4939413;29;19926;-67
2022/05/17 11:15:15;;;;;;;;;;;;;;;-140.72;100.00;51615.81;4939595;29;20437;-67
2022/05/17 11:17:50;;;;;;;;;;;;;;;-140.72;100.00;51636.09;4956769;29;19922;-67
2022/05/17 11:20:18;;;;;;;;;;;;;;;-140.72;100.00;51694.94;4950361;29;19980;-68
2022/05/17 11:23:02;;;;;;;;;;;;;;;-140.72;100.00;51753.78;4938746;29;19989;-70
2022/05/17 11:25:40;;;;;;;;;;;;;;;-140.72;100.00;51674.66;4953309;29;20331;-67
2022/05/17 11:28:15;;;;;;;;;;;;;;;-140.72;100.00;51709.13;4937845;28;19929;-69
2022/05/17 11:30:48;;;;;;;;;;;;;;;-140.72;100.00;51636.09;4969777;28;19925;-69
2022/05/17 11:33:22;;;;;;;;;;;;;;;-140.72;100.00;51686.81;4963436;28;19929;-67
2022/05/17 11:35:50;;;;;;;;;;;;;;;-140.72;100.00;51611.75;4962957;28;20341;-67
2022/05/17 11:38:39;;;;;;;;;;;;;;;-140.72;100.00;51575.25;4956498;28;19918;-68
2022/05/17 11:41:08;;;;;;;;;;;;;;;-140.72;100.00;51565.09;4963586;28;20077;-68
2022/05/17 11:43:41;;;;;;;;;;;;;;;-140.72;100.00;51502.22;4956257;29;19918;-67
2022/05/17 11:46:24;;;;;;;;;;;;;;;-140.72;100.00;51528.59;4956036;29;19966;-69
2022/05/17 11:49:09;;;;;;;;;;;;;;;-140.72;100.00;51692.91;4955292;29;19926;-69
2022/05/17 11:51:38;;;;;;;;;;;;;;;-140.72;100.00;51705.06;4945461;29;20124;-69
2022/05/17 11:54:07;;;;;;;;;;;;;;;-140.72;100.00;51648.28;4947702;29;19964;-68
2022/05/17 11:56:34;;;;;;;;;;;;;;;-140.72;100.00;51615.81;4936687;29;19945;-68
2022/05/17 11:59:12;;;;;;;;;;;;;;;-140.72;100.00;51593.50;4942756;29;20294;-69
2022/05/17 12:01:37;;;;;;;;;;;;;;;-140.72;100.00;51534.66;4940195;29;20089;-69
2022/05/17 12:04:02;;;;;;;;;;;;;;;-140.72;100.00;51607.69;4941014;29;20390;-68
2022/05/17 12:06:31;;;;;;;;;;;;;;;-140.72;100.00;51546.84;4937032;29;19919;-68
2022/05/17 12:08:56;;;;;;;;;;;;;;;-140.72;100.00;51512.34;4945120;28;19931;-70
2022/05/17 12:11:34;;;;;;;;;;;;;;;-140.72;100.00;51559.00;4954395;28;19934;-69
2022/05/17 12:14:20;;;;;;;;;;;;;;;-140.72;100.00;51650.31;4945435;28;19931;-67
2022/05/17 12:17:07;;;;;;;;;;;;;;;-140.72;100.00;51581.31;4959791;28;20345;-67
2022/05/17 12:19:39;;;;;;;;;;;;;;;-140.72;100.00;51532.63;4955035;28;20376;-68
2022/05/17 12:22:23;;;;;;;;;;;;;;;-140.72;100.00;51514.38;4950445;28;19923;-69
2022/05/17 12:25:09;;;;;;;;;;;;;;;-140.72;100.00;51477.88;4948316;28;19998;-70
2022/05/17 12:27:35;;;;;;;;;;;;;;;-140.72;100.00;51461.63;4949363;28;19945;-70
2022/05/17 12:32:49;;;;;;;;;;;;;;;-140.72;100.00;51469.75;4948156;28;19965;-69
2022/05/17 12:35:21;;;;;;;;;;;;;;;-140.72;100.00;51554.94;4943231;28;20351;-71
2022/05/17 12:37:46;;;;;;;;;;;;;;;-140.72;100.00;51514.38;4944752;28;20266;-71
2022/05/17 12:43:05;;;;;;;;;;;;;;;-140.72;100.00;51737.53;4915996;29;20018;-69
2022/05/17 12:45:32;;;;;;;;;;;;;;;-140.72;100.00;51778.13;4939433;29;19926;-69